sensor_id;sensor_type;location;lat;lon;timestamp;pressure;altitude;pressure_sealevel;temperature;humidity
41712;BME280;27399;51.516;13.670;2023-03-21T00:01:13;100631.06;;;11.32;90.40
41712;BME280;27399;51.516;13.670;2023-03-21T00:03:40;100630.28;;;11.23;90.59
41712;BME280;27399;51.516;13.670;2023-03-21T00:06:10;100616.09;;;11.13;91.28
41712;BME280;27399;51.516;13.670;2023-03-21T00:08:37;100625.78;;;11.29;90.19
41712;BME280;27399;51.516;13.670;2023-03-21T00:11:05;100617.00;;;11.10;91.24
41712;BME280;27399;51.516;13.670;2023-03-21T00:13:31;100610.72;;;11.18;91.10
41712;BME280;27399;51.516;13.670;2023-03-21T00:16:14;100615.19;;;11.17;90.80
41712;BME280;27399;51.516;13.670;2023-03-21T00:18:48;100599.22;;;11.11;90.83
41712;BME280;27399;51.516;13.670;2023-03-21T00:21:21;100608.94;;;11.18;90.48
41712;BME280;27399;51.516;13.670;2023-03-21T00:23:53;100612.50;;;11.19;90.82
41712;BME280;27399;51.516;13.670;2023-03-21T00:26:19;100614.31;;;11.12;90.84
41712;BME280;27399;51.516;13.670;2023-03-21T00:28:47;100609.84;;;11.14;90.89
41712;BME280;27399;51.516;13.670;2023-03-21T00:31:13;100599.22;;;11.12;91.14
41712;BME280;27399;51.516;13.670;2023-03-21T00:33:39;100604.53;;;11.14;90.98
41712;BME280;27399;51.516;13.670;2023-03-21T00:36:05;100601.84;;;11.14;90.77
41712;BME280;27399;51.516;13.670;2023-03-21T00:38:31;100602.78;;;11.08;91.00
41712;BME280;27399;51.516;13.670;2023-03-21T00:40:57;100603.66;;;11.10;91.02
41712;BME280;27399;51.516;13.670;2023-03-21T00:43:22;100593.00;;;11.07;91.15
41712;BME280;27399;51.516;13.670;2023-03-21T00:45:55;100599.13;;;11.19;90.47
41712;BME280;27399;51.516;13.670;2023-03-21T00:48:22;100599.25;;;11.08;90.80
41712;BME280;27399;51.516;13.670;2023-03-21T00:50:50;100596.47;;;11.22;90.18
41712;BME280;27399;51.516;13.670;2023-03-21T00:53:17;100601.84;;;11.15;90.71
41712;BME280;27399;51.516;13.670;2023-03-21T00:55:42;100586.78;;;11.07;90.80
41712;BME280;27399;51.516;13.670;2023-03-21T00:58:08;100591.25;;;11.05;91.48
41712;BME280;27399;51.516;13.670;2023-03-21T01:00:34;100595.69;;;11.09;90.96
41712;BME280;27399;51.516;13.670;2023-03-21T01:03:09;100585.88;;;11.06;91.04
41712;BME280;27399;51.516;13.670;2023-03-21T01:05:44;100579.69;;;11.06;90.76
41712;BME280;27399;51.516;13.670;2023-03-21T01:08:33;100582.41;;;10.99;90.95
41712;BME280;27399;51.516;13.670;2023-03-21T01:11:05;100584.16;;;10.99;91.08
41712;BME280;27399;51.516;13.670;2023-03-21T01:13:31;100575.28;;;10.97;91.19
41712;BME280;27399;51.516;13.670;2023-03-21T01:15:57;100586.88;;;10.97;91.22
41712;BME280;27399;51.516;13.670;2023-03-21T01:18:25;100589.50;;;11.00;91.16
41712;BME280;27399;51.516;13.670;2023-03-21T01:20:52;100592.19;;;10.99;91.37
41712;BME280;27399;51.516;13.670;2023-03-21T01:23:18;100592.19;;;10.97;91.47
41712;BME280;27399;51.516;13.670;2023-03-21T01:25:46;100589.50;;;10.99;90.88
41712;BME280;27399;51.516;13.670;2023-03-21T01:28:12;100587.78;;;10.95;91.64
41712;BME280;27399;51.516;13.670;2023-03-21T01:30:38;100587.75;;;10.96;91.00
41712;BME280;27399;51.516;13.670;2023-03-21T01:33:03;100587.75;;;10.98;91.16
41712;BME280;27399;51.516;13.670;2023-03-21T01:35:31;100591.28;;;11.00;91.08
41712;BME280;27399;51.516;13.670;2023-03-21T01:37:56;100588.59;;;11.01;90.77
41712;BME280;27399;51.516;13.670;2023-03-21T01:40:24;100589.53;;;10.97;90.89
41712;BME280;27399;51.516;13.670;2023-03-21T01:42:50;100592.19;;;10.97;90.92
41712;BME280;27399;51.516;13.670;2023-03-21T01:48:20;100594.00;;;10.95;91.17
41712;BME280;27399;51.516;13.670;2023-03-21T01:50:46;100591.28;;;11.03;90.38
41712;BME280;27399;51.516;13.670;2023-03-21T01:53:13;100590.41;;;10.99;90.29
41712;BME280;27399;51.516;13.670;2023-03-21T01:55:40;100592.25;;;10.93;91.12
41712;BME280;27399;51.516;13.670;2023-03-21T01:58:08;100597.56;;;10.94;90.46
41712;BME280;27399;51.516;13.670;2023-03-21T02:00:35;100594.00;;;10.95;90.55
41712;BME280;27399;51.516;13.670;2023-03-21T02:03:04;100594.88;;;10.97;90.62
41712;BME280;27399;51.516;13.670;2023-03-21T02:05:48;100592.13;;;11.07;90.10
41712;BME280;27399;51.516;13.670;2023-03-21T02:08:15;100585.13;;;10.95;90.52
41712;BME280;27399;51.516;13.670;2023-03-21T02:10:43;100586.00;;;10.95;90.61
41712;BME280;27399;51.516;13.670;2023-03-21T02:13:10;100572.69;;;10.91;91.12
41712;BME280;27399;51.516;13.670;2023-03-21T02:15:42;100579.78;;;10.92;90.91
41712;BME280;27399;51.516;13.670;2023-03-21T02:18:25;100579.78;;;10.92;90.71
41712;BME280;27399;51.516;13.670;2023-03-21T02:21:21;100579.75;;;10.99;90.33
41712;BME280;27399;51.516;13.670;2023-03-21T02:24:19;100576.25;;;10.90;90.80
41712;BME280;27399;51.516;13.670;2023-03-21T02:27:25;100577.13;;;10.92;90.71
41712;BME280;27399;51.516;13.670;2023-03-21T02:32:55;100577.16;;;10.87;91.30
41712;BME280;27399;51.516;13.670;2023-03-21T02:38:09;100577.16;;;10.85;91.37
41712;BME280;27399;51.516;13.670;2023-03-21T02:43:34;100578.06;;;10.86;90.86
41712;BME280;27399;51.516;13.670;2023-03-21T02:46:30;100572.72;;;10.86;91.02
41712;BME280;27399;51.516;13.670;2023-03-21T02:49:15;100576.28;;;10.85;90.45
41712;BME280;27399;51.516;13.670;2023-03-21T02:51:42;100571.94;;;10.73;89.45
41712;BME280;27399;51.516;13.670;2023-03-21T02:54:15;100581.66;;;10.79;89.71
41712;BME280;27399;51.516;13.670;2023-03-21T02:56:43;100568.47;;;10.56;88.29
41712;BME280;27399;51.516;13.670;2023-03-21T02:59:11;100574.56;;;10.78;88.93
41712;BME280;27399;51.516;13.670;2023-03-21T03:01:38;100577.22;;;10.78;88.90
41712;BME280;27399;51.516;13.670;2023-03-21T03:04:20;100572.88;;;10.64;88.18
41712;BME280;27399;51.516;13.670;2023-03-21T03:09:54;100574.63;;;10.65;88.21
41712;BME280;27399;51.516;13.670;2023-03-21T03:12:44;100585.31;;;10.62;88.44
41712;BME280;27399;51.516;13.670;2023-03-21T03:15:23;100580.00;;;10.58;88.11
41712;BME280;27399;51.516;13.670;2023-03-21T03:23:42;100579.13;;;10.56;88.21
41712;BME280;27399;51.516;13.670;2023-03-21T03:26:30;100577.41;;;10.47;87.13
41712;BME280;27399;51.516;13.670;2023-03-21T03:29:08;100574.72;;;10.53;87.26
41712;BME280;27399;51.516;13.670;2023-03-21T03:34:36;100545.38;;;10.50;87.66
41712;BME280;27399;51.516;13.670;2023-03-21T03:37:07;100576.47;;;10.57;87.60
41712;BME280;27399;51.516;13.670;2023-03-21T03:39:40;100579.19;;;10.45;88.32
41712;BME280;27399;51.516;13.670;2023-03-21T03:42:39;100575.59;;;10.49;88.55
41712;BME280;27399;51.516;13.670;2023-03-21T03:45:08;100582.75;;;10.45;88.97
41712;BME280;27399;51.516;13.670;2023-03-21T03:47:37;100579.16;;;10.48;88.34
41712;BME280;27399;51.516;13.670;2023-03-21T03:50:32;100576.50;;;10.48;88.70
41712;BME280;27399;51.516;13.670;2023-03-21T03:53:10;100581.81;;;10.51;88.82
41712;BME280;27399;51.516;13.670;2023-03-21T03:55:37;100574.78;;;10.37;89.03
41712;BME280;27399;51.516;13.670;2023-03-21T03:58:03;100566.69;;;10.54;88.25
41712;BME280;27399;51.516;13.670;2023-03-21T04:00:32;100569.38;;;10.50;88.61
41712;BME280;27399;51.516;13.670;2023-03-21T04:02:59;100567.66;;;10.43;88.67
41712;BME280;27399;51.516;13.670;2023-03-21T04:05:25;100570.31;;;10.46;88.61
41712;BME280;27399;51.516;13.670;2023-03-21T04:07:51;100572.97;;;10.46;88.62
41712;BME280;27399;51.516;13.670;2023-03-21T04:10:18;100571.22;;;10.42;89.04
41712;BME280;27399;51.516;13.670;2023-03-21T04:12:44;100569.34;;;10.58;87.97
41712;BME280;27399;51.516;13.670;2023-03-21T04:15:10;100572.91;;;10.58;87.95
41712;BME280;27399;51.516;13.670;2023-03-21T04:17:37;100563.13;;;10.56;87.38
41712;BME280;27399;51.516;13.670;2023-03-21T04:20:04;100562.22;;;10.60;87.22
41712;BME280;27399;51.516;13.670;2023-03-21T04:22:31;100568.47;;;10.56;87.30
41712;BME280;27399;51.516;13.670;2023-03-21T04:24:57;100575.69;;;10.41;87.86
41712;BME280;27399;51.516;13.670;2023-03-21T04:27:23;100578.31;;;10.46;87.75
41712;BME280;27399;51.516;13.670;2023-03-21T04:29:49;100572.94;;;10.49;87.35
41712;BME280;27399;51.516;13.670;2023-03-21T04:32:14;100580.09;;;10.47;88.17
41712;BME280;27399;51.516;13.670;2023-03-21T04:34:45;100575.66;;;10.46;88.67
41712;BME280;27399;51.516;13.670;2023-03-21T04:37:21;100572.09;;;10.47;88.86
41712;BME280;27399;51.516;13.670;2023-03-21T04:39:49;100581.78;;;10.59;88.55
41712;BME280;27399;51.516;13.670;2023-03-21T04:42:15;100582.72;;;10.50;88.80
41712;BME280;27399;51.516;13.670;2023-03-21T04:44:44;100585.38;;;10.53;89.00
41712;BME280;27399;51.516;13.670;2023-03-21T04:47:09;100582.75;;;10.47;88.48
41712;BME280;27399;51.516;13.670;2023-03-21T04:49:37;100577.44;;;10.37;89.22
41712;BME280;27399;51.516;13.670;2023-03-21T04:52:03;100577.44;;;10.41;89.23
41712;BME280;27399;51.516;13.670;2023-03-21T04:54:29;100576.56;;;10.38;89.32
41712;BME280;27399;51.516;13.670;2023-03-21T04:56:57;100573.91;;;10.40;88.99
41712;BME280;27399;51.516;13.670;2023-03-21T04:59:23;100580.13;;;10.39;89.37
41712;BME280;27399;51.516;13.670;2023-03-21T05:01:52;100580.09;;;10.37;89.47
41712;BME280;27399;51.516;13.670;2023-03-21T05:04:21;100581.00;;;10.36;89.50
41712;BME280;27399;51.516;13.670;2023-03-21T05:06:46;100576.56;;;10.38;89.47
41712;BME280;27399;51.516;13.670;2023-03-21T05:09:12;100575.69;;;10.38;89.40
41712;BME280;27399;51.516;13.670;2023-03-21T05:11:39;100577.50;;;10.22;90.14
41712;BME280;27399;51.516;13.670;2023-03-21T05:14:10;100586.34;;;10.30;90.08
41712;BME280;27399;51.516;13.670;2023-03-21T05:16:38;100576.59;;;10.31;89.75
41712;BME280;27399;51.516;13.670;2023-03-21T05:19:13;100575.72;;;10.24;89.85
41712;BME280;27399;51.516;13.670;2023-03-21T05:21:39;100574.78;;;10.34;89.63
41712;BME280;27399;51.516;13.670;2023-03-21T05:24:08;100563.25;;;10.28;89.90
41712;BME280;27399;51.516;13.670;2023-03-21T05:26:39;100573.00;;;10.30;89.67
41712;BME280;27399;51.516;13.670;2023-03-21T05:29:05;100577.50;;;10.25;90.29
41712;BME280;27399;51.516;13.670;2023-03-21T05:31:31;100577.44;;;10.34;89.75
41712;BME280;27399;51.516;13.670;2023-03-21T05:33:57;100580.13;;;10.31;89.60
41712;BME280;27399;51.516;13.670;2023-03-21T05:36:22;100583.66;;;10.36;89.61
41712;BME280;27399;51.516;13.670;2023-03-21T05:38:49;100581.94;;;10.26;89.98
41712;BME280;27399;51.516;13.670;2023-03-21T05:41:16;100582.81;;;10.30;90.14
41712;BME280;27399;51.516;13.670;2023-03-21T05:43:42;100578.34;;;10.27;89.99
41712;BME280;27399;51.516;13.670;2023-03-21T05:46:09;100575.69;;;10.30;89.96
41712;BME280;27399;51.516;13.670;2023-03-21T05:48:34;100576.56;;;10.29;90.12
41712;BME280;27399;51.516;13.670;2023-03-21T05:51:01;100581.00;;;10.30;90.56
41712;BME280;27399;51.516;13.670;2023-03-21T05:53:27;100583.69;;;10.30;90.11
41712;BME280;27399;51.516;13.670;2023-03-21T05:55:54;100581.88;;;10.35;90.23
41712;BME280;27399;51.516;13.670;2023-03-21T05:58:19;100578.34;;;10.36;89.63
41712;BME280;27399;51.516;13.670;2023-03-21T06:00:45;100586.34;;;10.38;90.24
41712;BME280;27399;51.516;13.670;2023-03-21T06:03:11;100580.13;;;10.39;90.06
41712;BME280;27399;51.516;13.670;2023-03-21T06:05:36;100587.22;;;10.38;90.34
41712;BME280;27399;51.516;13.670;2023-03-21T06:08:02;100583.69;;;10.38;90.19
41712;BME280;27399;51.516;13.670;2023-03-21T06:10:27;100590.75;;;10.41;90.42
41712;BME280;27399;51.516;13.670;2023-03-21T06:12:53;100584.53;;;10.45;89.95
41712;BME280;27399;51.516;13.670;2023-03-21T06:15:19;100585.44;;;10.42;90.26
41712;BME280;27399;51.516;13.670;2023-03-21T06:17:45;100589.00;;;10.38;90.80
41712;BME280;27399;51.516;13.670;2023-03-21T06:20:11;100592.53;;;10.38;90.90
41712;BME280;27399;51.516;13.670;2023-03-21T06:22:37;100589.81;;;10.51;89.77
41712;BME280;27399;51.516;13.670;2023-03-21T06:25:04;100585.44;;;10.44;89.71
41712;BME280;27399;51.516;13.670;2023-03-21T06:27:32;100597.81;;;10.54;88.91
41712;BME280;27399;51.516;13.670;2023-03-21T06:29:57;100591.66;;;10.43;89.47
41712;BME280;27399;51.516;13.670;2023-03-21T06:32:24;100585.34;;;10.54;88.60
41712;BME280;27399;51.516;13.670;2023-03-21T06:34:49;100593.44;;;10.34;89.25
41712;BME280;27399;51.516;13.670;2023-03-21T06:37:16;100599.66;;;10.46;89.34
41712;BME280;27399;51.516;13.670;2023-03-21T06:39:41;100597.78;;;10.60;88.34
41712;BME280;27399;51.516;13.670;2023-03-21T06:42:07;100595.09;;;10.63;88.24
41712;BME280;27399;51.516;13.670;2023-03-21T06:44:33;100597.81;;;10.54;88.70
41712;BME280;27399;51.516;13.670;2023-03-21T06:46:58;100597.78;;;10.56;89.10
41712;BME280;27399;51.516;13.670;2023-03-21T06:49:24;100591.66;;;10.41;89.43
41712;BME280;27399;51.516;13.670;2023-03-21T06:51:51;100612.91;;;10.60;88.84
41712;BME280;27399;51.516;13.670;2023-03-21T06:54:17;100607.53;;;10.61;89.28
41712;BME280;27399;51.516;13.670;2023-03-21T06:56:43;100598.75;;;10.45;90.62
41712;BME280;27399;51.516;13.670;2023-03-21T06:59:09;100585.34;;;10.54;89.60
41712;BME280;27399;51.516;13.670;2023-03-21T07:01:35;100600.44;;;10.60;89.67
41712;BME280;27399;51.516;13.670;2023-03-21T07:04:01;100613.75;;;10.66;88.79
41712;BME280;27399;51.516;13.670;2023-03-21T07:06:27;100588.88;;;10.61;89.08
41712;BME280;27399;51.516;13.670;2023-03-21T07:08:54;100610.13;;;10.75;88.18
41712;BME280;27399;51.516;13.670;2023-03-21T07:11:21;100613.75;;;10.63;89.25
41712;BME280;27399;51.516;13.670;2023-03-21T07:13:47;100607.56;;;10.57;89.24
41712;BME280;27399;51.516;13.670;2023-03-21T07:16:16;100595.06;;;10.65;88.72
41712;BME280;27399;51.516;13.670;2023-03-21T07:18:42;100611.91;;;10.78;88.42
41712;BME280;27399;51.516;13.670;2023-03-21T07:21:08;100607.41;;;10.84;88.46
41712;BME280;27399;51.516;13.670;2023-03-21T07:23:34;100609.16;;;10.92;88.12
41712;BME280;27399;51.516;13.670;2023-03-21T07:26:00;100603.81;;;10.89;88.10
41712;BME280;27399;51.516;13.670;2023-03-21T07:28:26;100610.88;;;10.97;87.43
41712;BME280;27399;51.516;13.670;2023-03-21T07:30:56;100606.44;;;10.93;87.56
41712;BME280;27399;51.516;13.670;2023-03-21T07:33:23;100617.19;;;10.87;89.16
41712;BME280;27399;51.516;13.670;2023-03-21T07:35:50;100612.91;;;10.57;88.29
41712;BME280;27399;51.516;13.670;2023-03-21T07:38:16;100612.78;;;10.78;87.31
41712;BME280;27399;51.516;13.670;2023-03-21T07:40:43;100605.56;;;10.91;87.65
41712;BME280;27399;51.516;13.670;2023-03-21T07:43:08;100610.00;;;10.98;87.52
41712;BME280;27399;51.516;13.670;2023-03-21T07:45:34;100609.13;;;10.90;87.29
41712;BME280;27399;51.516;13.670;2023-03-21T07:48:00;100610.06;;;10.86;87.20
41712;BME280;27399;51.516;13.670;2023-03-21T07:50:26;100615.41;;;10.83;87.50
41712;BME280;27399;51.516;13.670;2023-03-21T07:52:52;100610.13;;;10.77;87.84
41712;BME280;27399;51.516;13.670;2023-03-21T07:55:18;100602.97;;;10.83;87.93
41712;BME280;27399;51.516;13.670;2023-03-21T07:57:44;100606.66;;;10.59;89.45
41712;BME280;27399;51.516;13.670;2023-03-21T08:00:11;100592.34;;;10.76;87.99
41712;BME280;27399;51.516;13.670;2023-03-21T08:02:38;100597.59;;;10.88;87.61
41712;BME280;27399;51.516;13.670;2023-03-21T08:05:04;100601.13;;;10.90;86.70
41712;BME280;27399;51.516;13.670;2023-03-21T08:07:30;100606.59;;;10.75;87.94
41712;BME280;27399;51.516;13.670;2023-03-21T08:09:55;100604.66;;;10.95;87.32
41712;BME280;27399;51.516;13.670;2023-03-21T08:12:21;100603.78;;;10.90;87.76
41712;BME280;27399;51.516;13.670;2023-03-21T08:14:47;100612.75;;;10.84;88.18
41712;BME280;27399;51.516;13.670;2023-03-21T08:17:12;100609.34;;;10.61;88.86
41712;BME280;27399;51.516;13.670;2023-03-21T08:19:38;100604.72;;;10.86;88.17
41712;BME280;27399;51.516;13.670;2023-03-21T08:22:03;100601.00;;;11.10;87.67
41712;BME280;27399;51.516;13.670;2023-03-21T08:24:31;100601.97;;;10.97;89.15
41712;BME280;27399;51.516;13.670;2023-03-21T08:26:59;100604.66;;;10.98;89.64
41712;BME280;27399;51.516;13.670;2023-03-21T08:29:25;100609.94;;;11.05;89.53
41712;BME280;27399;51.516;13.670;2023-03-21T08:31:51;100615.22;;;11.12;88.45
41712;BME280;27399;51.516;13.670;2023-03-21T08:34:17;100612.50;;;11.20;87.18
41712;BME280;27399;51.516;13.670;2023-03-21T08:36:44;100613.63;;;10.88;89.86
41712;BME280;27399;51.516;13.670;2023-03-21T08:39:09;100609.94;;;11.01;89.12
41712;BME280;27399;51.516;13.670;2023-03-21T08:41:36;100614.38;;;11.03;88.46
41712;BME280;27399;51.516;13.670;2023-03-21T08:44:04;100609.00;;;11.13;88.17
41712;BME280;27399;51.516;13.670;2023-03-21T08:46:30;100609.97;;;10.97;88.20
41712;BME280;27399;51.516;13.670;2023-03-21T08:48:56;100609.91;;;11.11;88.19
41712;BME280;27399;51.516;13.670;2023-03-21T08:51:22;100610.78;;;11.08;88.03
41712;BME280;27399;51.516;13.670;2023-03-21T08:53:47;100610.69;;;11.21;86.81
41712;BME280;27399;51.516;13.670;2023-03-21T08:56:16;100606.31;;;11.12;87.69
41712;BME280;27399;51.516;13.670;2023-03-21T08:58:42;100603.50;;;11.29;86.80
41712;BME280;27399;51.516;13.670;2023-03-21T09:01:09;100601.78;;;11.22;86.29
41712;BME280;27399;51.516;13.670;2023-03-21T09:03:37;100602.66;;;11.22;85.80
41712;BME280;27399;51.516;13.670;2023-03-21T09:06:03;100600.88;;;11.24;86.38
41712;BME280;27399;51.516;13.670;2023-03-21T09:08:29;100599.97;;;11.25;85.52
41712;BME280;27399;51.516;13.670;2023-03-21T09:10:55;100599.84;;;11.39;85.60
41712;BME280;27399;51.516;13.670;2023-03-21T09:13:22;100599.84;;;11.41;85.92
41712;BME280;27399;51.516;13.670;2023-03-21T09:15:48;100590.19;;;11.24;85.67
41712;BME280;27399;51.516;13.670;2023-03-21T09:18:14;100607.00;;;11.39;85.51
41712;BME280;27399;51.516;13.670;2023-03-21T09:20:46;100603.63;;;11.15;85.67
41712;BME280;27399;51.516;13.670;2023-03-21T09:23:14;100604.16;;;11.57;85.52
41712;BME280;27399;51.516;13.670;2023-03-21T09:25:41;100601.44;;;11.60;86.55
41712;BME280;27399;51.516;13.670;2023-03-21T09:28:09;100605.13;;;11.47;85.17
41712;BME280;27399;51.516;13.670;2023-03-21T09:30:35;100601.69;;;11.34;85.54
41712;BME280;27399;51.516;13.670;2023-03-21T09:33:03;100598.72;;;11.65;84.98
41712;BME280;27399;51.516;13.670;2023-03-21T09:35:33;100596.03;;;11.67;84.59
41712;BME280;27399;51.516;13.670;2023-03-21T09:37:59;100591.75;;;11.50;84.69
41712;BME280;27399;51.516;13.670;2023-03-21T09:42:57;100587.16;;;11.65;84.21
41712;BME280;27399;51.516;13.670;2023-03-21T09:45:31;100589.69;;;11.77;83.99
41712;BME280;27399;51.516;13.670;2023-03-21T09:48:01;100583.41;;;11.83;83.91
41712;BME280;27399;51.516;13.670;2023-03-21T09:50:32;100580.81;;;11.75;83.65
41712;BME280;27399;51.516;13.670;2023-03-21T09:53:28;100573.63;;;11.83;83.87
41712;BME280;27399;51.516;13.670;2023-03-21T09:55:58;100572.72;;;11.83;82.36
41712;BME280;27399;51.516;13.670;2023-03-21T09:58:36;100588.59;;;12.00;83.13
41712;BME280;27399;51.516;13.670;2023-03-21T10:01:16;100573.50;;;11.91;82.68
41712;BME280;27399;51.516;13.670;2023-03-21T10:03:53;100577.13;;;11.85;82.98
41712;BME280;27399;51.516;13.670;2023-03-21T10:06:22;100583.22;;;12.01;83.76
41712;BME280;27399;51.516;13.670;2023-03-21T10:08:56;100569.03;;;11.93;83.30
41712;BME280;27399;51.516;13.670;2023-03-21T10:11:31;100570.56;;;12.16;83.15
41712;BME280;27399;51.516;13.670;2023-03-21T10:14:04;100576.97;;;12.04;83.82
41712;BME280;27399;51.516;13.670;2023-03-21T10:16:35;100575.09;;;12.09;82.61
41712;BME280;27399;51.516;13.670;2023-03-21T10:19:06;100568.75;;;12.21;82.63
41712;BME280;27399;51.516;13.670;2023-03-21T10:21:37;100571.53;;;12.10;81.41
41712;BME280;27399;51.516;13.670;2023-03-21T10:24:04;100566.06;;;12.21;82.13
41712;BME280;27399;51.516;13.670;2023-03-21T10:26:30;100568.81;;;12.12;82.31
41712;BME280;27399;51.516;13.670;2023-03-21T10:29:00;100575.88;;;12.17;81.92
41712;BME280;27399;51.516;13.670;2023-03-21T10:31:28;100567.75;;;12.28;82.10
41712;BME280;27399;51.516;13.670;2023-03-21T10:34:00;100574.22;;;12.08;82.67
41712;BME280;27399;51.516;13.670;2023-03-21T10:36:29;100563.22;;;12.32;82.42
41712;BME280;27399;51.516;13.670;2023-03-21T10:38:59;100559.63;;;12.34;81.71
41712;BME280;27399;51.516;13.670;2023-03-21T10:41:26;100563.88;;;12.49;81.55
41712;BME280;27399;51.516;13.670;2023-03-21T10:44:15;100563.09;;;12.41;81.53
41712;BME280;27399;51.516;13.670;2023-03-21T10:46:52;100570.16;;;12.48;81.21
41712;BME280;27399;51.516;13.670;2023-03-21T10:49:19;100566.72;;;12.38;81.16
41712;BME280;27399;51.516;13.670;2023-03-21T10:51:50;100556.16;;;12.28;81.69
41712;BME280;27399;51.516;13.670;2023-03-21T10:54:19;100561.47;;;12.32;81.60
41712;BME280;27399;51.516;13.670;2023-03-21T11:02:28;100550.44;;;12.54;80.39
41712;BME280;27399;51.516;13.670;2023-03-21T11:04:55;100546.09;;;12.48;80.29
41712;BME280;27399;51.516;13.670;2023-03-21T11:07:27;100547.81;;;12.49;80.89
41712;BME280;27399;51.516;13.670;2023-03-21T11:10:00;100544.94;;;12.65;80.30
41712;BME280;27399;51.516;13.670;2023-03-21T11:12:40;100543.28;;;12.58;79.85
41712;BME280;27399;51.516;13.670;2023-03-21T11:15:28;100539.47;;;12.73;79.11
41712;BME280;27399;51.516;13.670;2023-03-21T11:17:55;100534.91;;;12.79;80.52
41712;BME280;27399;51.516;13.670;2023-03-21T11:20:22;100531.41;;;12.74;79.97
41712;BME280;27399;51.516;13.670;2023-03-21T11:22:48;100519.81;;;12.75;79.42
41712;BME280;27399;51.516;13.670;2023-03-21T11:27:52;100518.34;;;13.09;79.54
41712;BME280;27399;51.516;13.670;2023-03-21T11:30:22;100523.91;;;12.96;79.60
41712;BME280;27399;51.516;13.670;2023-03-21T11:32:56;100501.53;;;13.00;79.07
41712;BME280;27399;51.516;13.670;2023-03-21T11:35:24;100515.66;;;13.09;78.82
41712;BME280;27399;51.516;13.670;2023-03-21T11:37:54;100516.28;;;13.26;79.07
41712;BME280;27399;51.516;13.670;2023-03-21T11:40:31;100510.94;;;13.25;78.63
41712;BME280;27399;51.516;13.670;2023-03-21T11:46:21;100501.38;;;13.60;78.96
41712;BME280;27399;51.516;13.670;2023-03-21T11:48:48;100508.50;;;13.61;78.55
41712;BME280;27399;51.516;13.670;2023-03-21T11:56:46;100495.44;;;13.89;77.79
41712;BME280;27399;51.516;13.670;2023-03-21T12:02:14;100486.19;;;14.04;76.71
41712;BME280;27399;51.516;13.670;2023-03-21T12:04:56;100487.19;;;13.99;77.71
41712;BME280;27399;51.516;13.670;2023-03-21T12:07:34;100483.66;;;13.97;76.53
41712;BME280;27399;51.516;13.670;2023-03-21T12:10:31;100482.38;;;14.15;76.72
41712;BME280;27399;51.516;13.670;2023-03-21T12:19:28;100469.94;;;14.10;76.87
41712;BME280;27399;51.516;13.670;2023-03-21T12:24:55;100465.00;;;14.31;76.48
41712;BME280;27399;51.516;13.670;2023-03-21T12:36:05;100453.19;;;14.40;77.06
41712;BME280;27399;51.516;13.670;2023-03-21T12:38:44;100447.13;;;14.32;75.87
41712;BME280;27399;51.516;13.670;2023-03-21T12:41:22;100439.72;;;14.41;76.23
41712;BME280;27399;51.516;13.670;2023-03-21T12:44:03;100444.84;;;14.52;76.79
41712;BME280;27399;51.516;13.670;2023-03-21T12:46:44;100430.69;;;14.46;76.25
41712;BME280;27399;51.516;13.670;2023-03-21T12:49:25;100428.13;;;14.39;75.58
41712;BME280;27399;51.516;13.670;2023-03-21T12:52:33;100429.19;;;14.34;75.93
41712;BME280;27399;51.516;13.670;2023-03-21T12:55:06;100422.47;;;14.52;75.23
41712;BME280;27399;51.516;13.670;2023-03-21T13:00:29;100422.94;;;14.33;76.04
41712;BME280;27399;51.516;13.670;2023-03-21T13:03:02;100409.44;;;14.36;75.05
41712;BME280;27399;51.516;13.670;2023-03-21T13:05:34;100410.88;;;14.51;75.10
41712;BME280;27399;51.516;13.670;2023-03-21T13:08:17;100411.41;;;14.67;75.96
41712;BME280;27399;51.516;13.670;2023-03-21T13:10:45;100406.88;;;14.68;75.72
41712;BME280;27399;51.516;13.670;2023-03-21T13:15:56;100397.56;;;14.83;74.56
41712;BME280;27399;51.516;13.670;2023-03-21T13:18:51;100401.06;;;14.86;75.69
41712;BME280;27399;51.516;13.670;2023-03-21T13:30:44;100372.06;;;14.99;73.50
41712;BME280;27399;51.516;13.670;2023-03-21T13:33:19;100383.16;;;15.18;74.16
41712;BME280;27399;51.516;13.670;2023-03-21T13:35:44;100379.41;;;15.26;73.73
41712;BME280;27399;51.516;13.670;2023-03-21T13:38:36;100369.91;;;14.81;74.04
41712;BME280;27399;51.516;13.670;2023-03-21T13:41:18;100372.19;;;14.95;73.76
41712;BME280;27399;51.516;13.670;2023-03-21T13:51:42;100361.91;;;15.11;73.80
41712;BME280;27399;51.516;13.670;2023-03-21T13:59:10;100356.63;;;15.08;74.23
41712;BME280;27399;51.516;13.670;2023-03-21T14:01:40;100354.50;;;15.19;73.83
41712;BME280;27399;51.516;13.670;2023-03-21T14:04:17;100350.59;;;14.99;74.54
41712;BME280;27399;51.516;13.670;2023-03-21T14:11:49;100354.59;;;15.16;74.03
41712;BME280;27399;51.516;13.670;2023-03-21T14:14:17;100339.25;;;14.88;74.21
41712;BME280;27399;51.516;13.670;2023-03-21T14:16:43;100335.69;;;15.19;74.33
41712;BME280;27399;51.516;13.670;2023-03-21T14:19:10;100338.06;;;15.30;74.53
41712;BME280;27399;51.516;13.670;2023-03-21T14:21:36;100335.84;;;15.14;74.44
41712;BME280;27399;51.516;13.670;2023-03-21T14:24:05;100327.56;;;15.22;74.48
41712;BME280;27399;51.516;13.670;2023-03-21T14:26:34;100319.03;;;15.38;73.97
41712;BME280;27399;51.516;13.670;2023-03-21T14:29:05;100318.47;;;15.26;73.94
41712;BME280;27399;51.516;13.670;2023-03-21T14:31:32;100316.63;;;15.28;74.07